Time;durP1;ratioP1;P1;durP2;ratioP2;P2;SDS_P1;SDS_P2;PMS_P1;PMS_P2;Temp;Humidity;BMP_temperature;BMP_pressure;BME280_temperature;BME280_humidity;BME280_pressure;Samples;Min_cycle;Max_cycle;Signal;HPM_P1;HPM_P2
2022/11/19 00:00:11;;;;;;;14.52;10.00;;;;;;;;;;1272638;23;20013;-81
2022/11/19 00:00:44;;;;;;;12.38;10.27;;;;;;;;;;1267657;23;20017;-80
2022/11/19 00:01:21;;;;;;;15.57;10.75;;;;;;;;;;1273809;23;20044;-80
2022/11/19 00:01:53;;;;;;;15.10;10.88;;;;;;;;;;1271032;23;20012;-82
2022/11/19 00:02:24;;;;;;;11.68;8.68;;;;;;;;;;1273973;23;20005;-82
2022/11/19 00:02:56;;;;;;;13.57;10.05;;;;;;;;;;1273797;23;20031;-80
2022/11/19 00:03:30;;;;;;;15.93;11.43;;;;;;;;;;1268679;23;20014;-80
2022/11/19 00:04:06;;;;;;;14.73;9.95;;;;;;;;;;1266988;23;20061;-81
2022/11/19 00:04:37;;;;;;;14.90;10.35;;;;;;;;;;1268457;23;20078;-80
2022/11/19 00:05:09;;;;;;;15.00;11.20;;;;;;;;;;1270796;23;20064;-79
2022/11/19 00:05:40;;;;;;;14.85;10.80;;;;;;;;;;1274681;23;20081;-81
2022/11/19 00:06:16;;;;;;;13.52;9.93;;;;;;;;;;1273613;23;20009;-80
2022/11/19 00:06:47;;;;;;;12.43;9.90;;;;;;;;;;1268782;23;20010;-83
2022/11/19 00:07:18;;;;;;;15.25;11.15;;;;;;;;;;1274438;23;20009;-82
2022/11/19 00:07:51;;;;;;;15.77;12.10;;;;;;;;;;1274940;23;20323;-79
2022/11/19 00:08:26;;;;;;;14.18;10.77;;;;;;;;;;1275120;23;20544;-81
2022/11/19 00:08:57;;;;;;;13.80;10.50;;;;;;;;;;1273184;23;20005;-79
2022/11/19 00:09:29;;;;;;;14.52;11.05;;;;;;;;;;1274913;23;19998;-80
2022/11/19 00:10:00;;;;;;;14.23;10.65;;;;;;;;;;1273764;23;20006;-79
2022/11/19 00:10:33;;;;;;;13.13;10.35;;;;;;;;;;1273861;23;20065;-78
2022/11/19 00:11:05;;;;;;;13.48;9.45;;;;;;;;;;1274026;23;20341;-80
2022/11/19 00:13:26;;;;;;;16.00;11.00;;;;;;;;;;1279886;23;20032;-81
2022/11/19 00:13:57;;;;;;;17.48;11.35;;;;;;;;;;1273564;23;20020;-79
2022/11/19 00:14:28;;;;;;;13.25;9.75;;;;;;;;;;1267455;23;20013;-81
2022/11/19 00:14:59;;;;;;;14.75;10.82;;;;;;;;;;1267332;23;20010;-82
2022/11/19 00:15:30;;;;;;;14.55;9.57;;;;;;;;;;1267370;23;20018;-81
2022/11/19 00:16:22;;;;;;;16.38;11.77;;;;;;;;;;1267473;23;20006;-80
2022/11/19 00:16:56;;;;;;;17.05;11.63;;;;;;;;;;1272125;23;20006;-79
2022/11/19 00:17:27;;;;;;;13.80;10.15;;;;;;;;;;1273119;23;20037;-80
2022/11/19 00:17:59;;;;;;;14.27;10.20;;;;;;;;;;1273338;23;20017;-79
2022/11/19 00:18:30;;;;;;;15.15;9.75;;;;;;;;;;1273465;23;20006;-82
2022/11/19 00:19:01;;;;;;;14.65;11.38;;;;;;;;;;1272779;23;20006;-80
2022/11/19 00:19:35;;;;;;;14.30;10.65;;;;;;;;;;1272706;23;20071;-82
2022/11/19 00:20:06;;;;;;;16.83;10.15;;;;;;;;;;1273516;23;20349;-80
2022/11/19 00:20:37;;;;;;;13.63;11.27;;;;;;;;;;1273198;23;20016;-80
2022/11/19 00:21:13;;;;;;;14.73;10.68;;;;;;;;;;1272511;23;20448;-79
2022/11/19 00:21:45;;;;;;;14.27;9.68;;;;;;;;;;1273228;23;20456;-80
2022/11/19 00:22:16;;;;;;;14.20;11.43;;;;;;;;;;1272787;23;20021;-81
2022/11/19 00:22:51;;;;;;;15.05;10.75;;;;;;;;;;1273784;23;19993;-78
2022/11/19 00:23:23;;;;;;;12.00;8.88;;;;;;;;;;1271808;23;19997;-80
2022/11/19 00:23:54;;;;;;;14.65;10.20;;;;;;;;;;1273519;23;20002;-79
2022/11/19 00:24:27;;;;;;;13.65;10.80;;;;;;;;;;1271535;23;19998;-81
2022/11/19 00:24:58;;;;;;;14.93;10.82;;;;;;;;;;1272067;23;20025;-79
2022/11/19 00:25:30;;;;;;;13.77;9.73;;;;;;;;;;1271439;23;20080;-81
2022/11/19 00:26:07;;;;;;;11.85;9.05;;;;;;;;;;1265875;23;20001;-80
2022/11/19 00:26:38;;;;;;;12.98;9.20;;;;;;;;;;1272572;23;20025;-80
2022/11/19 00:27:09;;;;;;;16.65;13.23;;;;;;;;;;1273148;23;19998;-81
2022/11/19 00:27:40;;;;;;;12.98;10.45;;;;;;;;;;1273149;23;19997;-80
2022/11/19 00:28:11;;;;;;;13.60;9.98;;;;;;;;;;1272096;23;19993;-81
2022/11/19 00:28:44;;;;;;;14.38;11.10;;;;;;;;;;1273076;23;20008;-79
2022/11/19 00:29:15;;;;;;;15.68;10.07;;;;;;;;;;1272687;23;20024;-81
2022/11/19 00:29:46;;;;;;;11.52;8.93;;;;;;;;;;1272661;23;19997;-80
2022/11/19 00:30:20;;;;;;;14.75;11.63;;;;;;;;;;1272086;23;19993;-81
2022/11/19 00:30:51;;;;;;;20.67;12.52;;;;;;;;;;1271855;23;19997;-80
2022/11/19 00:31:29;;;;;;;14.10;11.07;;;;;;;;;;1272071;23;20021;-80
2022/11/19 00:32:03;;;;;;;16.30;12.80;;;;;;;;;;1272303;23;20077;-81
2022/11/19 00:32:35;;;;;;;14.25;9.82;;;;;;;;;;1269265;23;20001;-82
2022/11/19 00:33:07;;;;;;;13.90;10.85;;;;;;;;;;1269527;23;20029;-81
2022/11/19 00:33:38;;;;;;;14.40;10.45;;;;;;;;;;1260998;23;20010;-81
2022/11/19 00:34:10;;;;;;;11.98;9.02;;;;;;;;;;1265844;23;20055;-80
2022/11/19 00:34:41;;;;;;;17.17;12.50;;;;;;;;;;1266398;23;20020;-83
2022/11/19 00:35:14;;;;;;;17.75;12.82;;;;;;;;;;1266801;23;20077;-79
2022/11/19 00:35:45;;;;;;;14.32;10.85;;;;;;;;;;1271193;23;20100;-81
2022/11/19 00:36:19;;;;;;;17.45;11.23;;;;;;;;;;1271982;23;19994;-81
2022/11/19 00:36:53;;;;;;;15.90;13.18;;;;;;;;;;1271866;23;19998;-80
2022/11/19 00:37:24;;;;;;;14.57;10.55;;;;;;;;;;1270535;23;20001;-82
2022/11/19 00:37:58;;;;;;;13.15;10.68;;;;;;;;;;1264179;23;20002;-82
2022/11/19 00:38:30;;;;;;;12.10;9.88;;;;;;;;;;1261588;23;20021;-81
2022/11/19 00:39:01;;;;;;;15.90;12.57;;;;;;;;;;1266271;23;19999;-82
2022/11/19 00:39:35;;;;;;;12.75;10.40;;;;;;;;;;1267340;23;20648;-79
2022/11/19 00:40:07;;;;;;;15.55;10.60;;;;;;;;;;1265514;23;20006;-79
2022/11/19 00:40:42;;;;;;;16.63;11.98;;;;;;;;;;1264682;23;20053;-80
2022/11/19 00:41:13;;;;;;;12.88;10.23;;;;;;;;;;1266059;23;20010;-81
2022/11/19 00:41:49;;;;;;;13.70;10.23;;;;;;;;;;1260988;23;20013;-79
2022/11/19 00:42:21;;;;;;;14.18;10.50;;;;;;;;;;1266110;23;20006;-82
2022/11/19 00:43:48;;;;;;;15.15;11.63;;;;;;;;;;1271134;23;20089;-79
2022/11/19 00:44:19;;;;;;;15.73;10.73;;;;;;;;;;1271941;23;20025;-81
2022/11/19 00:44:53;;;;;;;15.85;10.40;;;;;;;;;;1271761;23;20014;-80
2022/11/19 00:45:24;;;;;;;14.57;10.75;;;;;;;;;;1271964;23;21040;-79
2022/11/19 00:45:58;;;;;;;13.80;9.88;;;;;;;;;;1265778;23;20198;-79
2022/11/19 00:46:30;;;;;;;15.15;11.90;;;;;;;;;;1259956;23;20003;-79
2022/11/19 00:47:01;;;;;;;14.73;10.95;;;;;;;;;;1260964;23;20010;-81
2022/11/19 00:47:35;;;;;;;13.45;9.55;;;;;;;;;;1260889;23;20029;-80
2022/11/19 00:48:08;;;;;;;17.17;12.43;;;;;;;;;;1265793;23;20002;-82
2022/11/19 00:48:40;;;;;;;12.82;9.32;;;;;;;;;;1267370;23;20005;-80
2022/11/19 00:49:11;;;;;;;16.25;12.57;;;;;;;;;;1265536;23;20774;-80
2022/11/19 00:49:42;;;;;;;13.05;10.65;;;;;;;;;;1266863;23;20137;-79
2022/11/19 00:50:13;;;;;;;12.50;9.57;;;;;;;;;;1271713;23;20048;-80
2022/11/19 00:50:47;;;;;;;15.68;11.38;;;;;;;;;;1271637;23;20543;-80
2022/11/19 00:51:19;;;;;;;15.65;9.95;;;;;;;;;;1260016;23;20608;-78
2022/11/19 00:51:50;;;;;;;17.42;11.63;;;;;;;;;;1260843;23;20120;-80
2022/11/19 00:52:21;;;;;;;13.65;10.48;;;;;;;;;;1259757;23;20009;-79
2022/11/19 00:52:52;;;;;;;12.35;8.85;;;;;;;;;;1254576;23;20014;-78
2022/11/19 00:53:23;;;;;;;13.82;12.23;;;;;;;;;;1260122;23;20391;-82
2022/11/19 00:53:54;;;;;;;14.63;12.15;;;;;;;;;;1266446;23;20049;-82
2022/11/19 00:54:26;;;;;;;13.90;9.48;;;;;;;;;;1265416;23;20038;-80
2022/11/19 00:55:00;;;;;;;12.63;9.18;;;;;;;;;;1272189;23;20006;-80
2022/11/19 00:55:31;;;;;;;14.93;11.15;;;;;;;;;;1265424;23;20009;-79
2022/11/19 00:56:03;;;;;;;13.77;9.88;;;;;;;;;;1266825;23;20048;-82
2022/11/19 00:56:41;;;;;;;15.15;9.55;;;;;;;;;;1271811;23;20418;-81
2022/11/19 00:57:12;;;;;;;12.48;9.40;;;;;;;;;;1269571;23;20001;-80
2022/11/19 00:57:49;;;;;;;12.00;8.15;;;;;;;;;;1269880;23;20010;-81
2022/11/19 00:58:20;;;;;;;12.32;9.88;;;;;;;;;;1272457;23;20084;-80
2022/11/19 00:58:52;;;;;;;13.15;9.88;;;;;;;;;;1271907;23;20016;-81
2022/11/19 00:59:23;;;;;;;14.40;10.15;;;;;;;;;;1270618;23;20017;-80
2022/11/19 00:59:57;;;;;;;15.18;8.98;;;;;;;;;;1266206;23;20006;-81
2022/11/19 01:00:28;;;;;;;12.23;10.07;;;;;;;;;;1265880;23;20010;-79
2022/11/19 01:01:02;;;;;;;12.18;10.02;;;;;;;;;;1266967;23;20378;-80
2022/11/19 01:01:33;;;;;;;11.85;8.90;;;;;;;;;;1271679;23;20001;-80
2022/11/19 01:02:07;;;;;;;15.30;11.27;;;;;;;;;;1272438;23;20085;-80
2022/11/19 01:02:39;;;;;;;12.30;9.80;;;;;;;;;;1272495;23;20013;-79
2022/11/19 01:03:13;;;;;;;15.90;11.18;;;;;;;;;;1272406;23;20009;-80
2022/11/19 01:03:45;;;;;;;15.85;10.82;;;;;;;;;;1271993;23;20036;-80
2022/11/19 01:04:16;;;;;;;13.10;10.18;;;;;;;;;;1271240;23;20033;-82
2022/11/19 01:04:47;;;;;;;14.50;11.45;;;;;;;;;;1270973;23;20005;-80
2022/11/19 01:05:18;;;;;;;14.07;11.00;;;;;;;;;;1265129;23;20403;-82
2022/11/19 01:05:49;;;;;;;15.95;12.52;;;;;;;;;;1270476;23;20405;-82
2022/11/19 01:06:21;;;;;;;14.82;12.20;;;;;;;;;;1270465;23;20119;-83
2022/11/19 01:06:52;;;;;;;17.30;13.27;;;;;;;;;;1264455;23;20002;-82
2022/11/19 01:07:23;;;;;;;15.15;11.60;;;;;;;;;;1270755;23;20006;-83
2022/11/19 01:07:54;;;;;;;14.05;11.43;;;;;;;;;;1270490;23;20001;-79
2022/11/19 01:08:25;;;;;;;15.23;10.00;;;;;;;;;;1270543;23;20009;-81
2022/11/19 01:08:57;;;;;;;12.48;10.45;;;;;;;;;;1270447;23;20437;-80
2022/11/19 01:09:28;;;;;;;14.93;10.77;;;;;;;;;;1270543;23;20001;-80
2022/11/19 01:09:59;;;;;;;13.73;10.80;;;;;;;;;;1270458;23;20009;-80
2022/11/19 01:10:30;;;;;;;12.55;10.15;;;;;;;;;;1270701;23;20424;-80
2022/11/19 01:11:12;;;;;;;15.02;12.95;;;;;;;;;;1270473;23;20398;-80
2022/11/19 01:11:43;;;;;;;15.45;11.25;;;;;;;;;;1270717;23;20479;-81
2022/11/19 01:12:14;;;;;;;13.35;11.23;;;;;;;;;;1270669;23;20503;-79
2022/11/19 01:13:35;;;;;;;12.82;9.25;;;;;;;;;;1270654;23;20084;-83
2022/11/19 01:14:06;;;;;;;13.82;11.48;;;;;;;;;;1271008;23;20005;-79
2022/11/19 01:14:37;;;;;;;16.15;13.07;;;;;;;;;;1275166;23;20036;-78
2022/11/19 01:15:08;;;;;;;15.80;11.57;;;;;;;;;;1277093;23;20012;-78
2022/11/19 01:15:39;;;;;;;14.82;11.20;;;;;;;;;;1270619;23;20639;-80
2022/11/19 01:16:12;;;;;;;12.90;9.63;;;;;;;;;;1264403;23;20013;-79
2022/11/19 01:16:43;;;;;;;16.80;12.07;;;;;;;;;;1264398;23;20093;-79
2022/11/19 01:17:14;;;;;;;13.38;11.15;;;;;;;;;;1265999;23;20002;-82
2022/11/19 01:17:45;;;;;;;15.43;11.20;;;;;;;;;;1270482;23;20509;-79
2022/11/19 01:18:17;;;;;;;14.70;11.27;;;;;;;;;;1265117;23;20444;-80
2022/11/19 01:18:48;;;;;;;15.68;11.55;;;;;;;;;;1270529;23;20164;-78
2022/11/19 01:19:19;;;;;;;14.68;12.13;;;;;;;;;;1271007;23;20020;-81
2022/11/19 01:19:50;;;;;;;12.70;9.75;;;;;;;;;;1270643;23;20009;-79
2022/11/19 01:20:21;;;;;;;11.88;9.43;;;;;;;;;;1270864;23;20006;-80
2022/11/19 01:20:52;;;;;;;12.32;9.85;;;;;;;;;;1264435;23;20022;-79
2022/11/19 01:21:26;;;;;;;15.18;10.85;;;;;;;;;;1270568;23;20060;-79
2022/11/19 01:21:57;;;;;;;12.65;9.88;;;;;;;;;;1270494;23;20084;-79
2022/11/19 01:22:27;;;;;;;13.80;11.20;;;;;;;;;;1270539;23;20008;-81
2022/11/19 01:22:58;;;;;;;11.23;9.35;;;;;;;;;;1269778;23;20081;-79
2022/11/19 01:23:29;;;;;;;10.40;8.10;;;;;;;;;;1269602;23;20496;-79
2022/11/19 01:24:01;;;;;;;10.35;8.55;;;;;;;;;;1270162;23;20519;-78
2022/11/19 01:24:32;;;;;;;11.77;9.00;;;;;;;;;;1270333;23;19998;-79
2022/11/19 01:25:03;;;;;;;15.73;10.77;;;;;;;;;;1270505;23;19989;-79
2022/11/19 01:25:35;;;;;;;14.80;11.68;;;;;;;;;;1264748;23;20001;-81
2022/11/19 01:26:06;;;;;;;16.52;11.95;;;;;;;;;;1264859;23;20342;-80
2022/11/19 01:26:37;;;;;;;14.05;11.13;;;;;;;;;;1270771;23;20005;-78
2022/11/19 01:27:08;;;;;;;13.07;10.75;;;;;;;;;;1270349;23;20093;-78
2022/11/19 01:27:40;;;;;;;15.57;10.80;;;;;;;;;;1270435;23;20447;-79
2022/11/19 01:28:11;;;;;;;14.43;10.27;;;;;;;;;;1264368;23;20046;-79
2022/11/19 01:28:42;;;;;;;13.15;10.52;;;;;;;;;;1265215;23;20001;-78
2022/11/19 01:29:13;;;;;;;13.45;11.23;;;;;;;;;;1263985;23;20134;-81
2022/11/19 01:29:44;;;;;;;12.57;9.98;;;;;;;;;;1264461;23;20005;-81
2022/11/19 01:30:15;;;;;;;12.88;10.43;;;;;;;;;;1264168;23;20360;-81
2022/11/19 01:30:46;;;;;;;15.63;11.70;;;;;;;;;;1264958;23;20121;-79
2022/11/19 01:31:18;;;;;;;15.07;10.15;;;;;;;;;;1270713;23;19998;-81
2022/11/19 01:31:49;;;;;;;12.90;10.25;;;;;;;;;;1270461;23;20001;-82
2022/11/19 01:32:20;;;;;;;13.40;11.15;;;;;;;;;;1270705;23;20009;-81
2022/11/19 01:32:51;;;;;;;14.13;10.88;;;;;;;;;;1270642;23;20504;-78
2022/11/19 01:33:22;;;;;;;13.43;11.00;;;;;;;;;;1270399;23;19996;-80
2022/11/19 01:33:53;;;;;;;15.35;12.65;;;;;;;;;;1270875;23;20441;-79
2022/11/19 01:34:24;;;;;;;16.08;11.55;;;;;;;;;;1270326;23;20410;-79
2022/11/19 01:34:55;;;;;;;16.02;12.32;;;;;;;;;;1270522;23;20430;-80
2022/11/19 01:35:26;;;;;;;15.23;11.60;;;;;;;;;;1270500;23;20007;-80
2022/11/19 01:35:58;;;;;;;14.25;9.75;;;;;;;;;;1270718;23;20047;-81
2022/11/19 01:36:30;;;;;;;13.98;10.75;;;;;;;;;;1270002;23;20377;-79
2022/11/19 01:37:01;;;;;;;14.18;12.30;;;;;;;;;;1270463;23;20071;-78
2022/11/19 01:37:31;;;;;;;15.65;13.60;;;;;;;;;;1269771;23;20401;-78
2022/11/19 01:38:03;;;;;;;14.90;12.25;;;;;;;;;;1271041;23;19998;-80
2022/11/19 01:38:34;;;;;;;12.30;9.30;;;;;;;;;;1270563;23;20009;-79
2022/11/19 01:39:05;;;;;;;14.13;11.00;;;;;;;;;;1270677;23;19986;-80
2022/11/19 01:39:36;;;;;;;16.67;14.05;;;;;;;;;;1270523;23;19997;-80
2022/11/19 01:40:07;;;;;;;13.68;10.70;;;;;;;;;;1270907;23;20016;-81
2022/11/19 01:40:42;;;;;;;13.70;10.88;;;;;;;;;;1270499;23;19998;-80
2022/11/19 01:41:13;;;;;;;16.13;11.48;;;;;;;;;;1270707;23;20001;-81
2022/11/19 01:41:44;;;;;;;11.88;9.73;;;;;;;;;;1270430;23;20002;-80
2022/11/19 01:43:18;;;;;;;12.65;10.10;;;;;;;;;;1271358;23;20515;-80
2022/11/19 01:43:50;;;;;;;20.25;12.10;;;;;;;;;;1271203;23;20382;-81
2022/11/19 01:44:40;;;;;;;15.35;13.13;;;;;;;;;;1277510;23;20004;-80
2022/11/19 01:45:30;;;;;;;15.30;11.75;;;;;;;;;;1270938;23;20002;-83
2022/11/19 01:46:01;;;;;;;12.57;9.93;;;;;;;;;;1264821;23;20113;-79
2022/11/19 01:46:33;;;;;;;11.80;9.23;;;;;;;;;;1264724;23;20009;-81
2022/11/19 01:47:03;;;;;;;11.30;8.60;;;;;;;;;;1268619;23;20357;-82
2022/11/19 01:47:34;;;;;;;13.52;10.30;;;;;;;;;;1264752;23;20330;-81
2022/11/19 01:48:05;;;;;;;15.60;12.90;;;;;;;;;;1264439;23;20010;-79
2022/11/19 01:48:39;;;;;;;14.23;11.05;;;;;;;;;;1265265;23;20084;-83
2022/11/19 01:49:12;;;;;;;11.27;9.13;;;;;;;;;;1270336;23;20006;-81
2022/11/19 01:49:43;;;;;;;13.40;11.63;;;;;;;;;;1271048;23;19997;-81
2022/11/19 01:50:14;;;;;;;12.25;10.50;;;;;;;;;;1270898;23;20014;-80
2022/11/19 01:50:48;;;;;;;16.88;13.13;;;;;;;;;;1265168;23;20338;-80
2022/11/19 01:51:35;;;;;;;12.05;10.13;;;;;;;;;;1270928;23;20005;-79
2022/11/19 01:52:06;;;;;;;13.32;10.52;;;;;;;;;;1270647;23;20001;-81
2022/11/19 01:52:38;;;;;;;13.00;10.60;;;;;;;;;;1271221;23;20017;-82
2022/11/19 01:53:10;;;;;;;14.23;12.00;;;;;;;;;;1270879;23;20047;-81
2022/11/19 01:53:43;;;;;;;13.65;11.45;;;;;;;;;;1270691;23;20479;-81
2022/11/19 01:54:24;;;;;;;14.10;11.90;;;;;;;;;;1270481;23;20471;-81
2022/11/19 01:54:55;;;;;;;15.07;11.65;;;;;;;;;;1270984;23;20013;-80
2022/11/19 01:55:27;;;;;;;11.50;9.18;;;;;;;;;;1270807;23;19994;-82
2022/11/19 01:56:02;;;;;;;14.50;11.20;;;;;;;;;;1268189;23;20009;-81
2022/11/19 01:56:33;;;;;;;13.55;11.85;;;;;;;;;;1270844;23;20033;-81
2022/11/19 01:57:08;;;;;;;14.35;12.48;;;;;;;;;;1271224;23;20016;-79
2022/11/19 01:57:40;;;;;;;14.38;12.88;;;;;;;;;;1270418;23;20015;-82
2022/11/19 01:58:11;;;;;;;13.52;11.40;;;;;;;;;;1270555;23;20077;-81
2022/11/19 01:58:45;;;;;;;15.18;11.43;;;;;;;;;;1264248;23;20022;-79
2022/11/19 01:59:17;;;;;;;15.10;11.90;;;;;;;;;;1265458;23;20041;-80
2022/11/19 01:59:50;;;;;;;11.70;10.10;;;;;;;;;;1269983;23;20496;-81
2022/11/19 02:00:21;;;;;;;13.23;10.73;;;;;;;;;;1270580;23;20012;-81
2022/11/19 02:00:52;;;;;;;15.00;13.40;;;;;;;;;;1269934;23;20013;-81
2022/11/19 02:01:23;;;;;;;16.15;10.73;;;;;;;;;;1264011;23;19998;-82
2022/11/19 02:01:55;;;;;;;15.48;13.77;;;;;;;;;;1264588;23;20044;-80
2022/11/19 02:02:26;;;;;;;13.02;11.02;;;;;;;;;;1270314;23;20422;-82
2022/11/19 02:02:57;;;;;;;14.32;11.73;;;;;;;;;;1270270;23;20376;-79
2022/11/19 02:03:29;;;;;;;14.57;11.68;;;;;;;;;;1270861;23;20075;-80
2022/11/19 02:04:01;;;;;;;15.73;13.23;;;;;;;;;;1271756;23;19990;-79
2022/11/19 02:04:33;;;;;;;17.00;12.80;;;;;;;;;;1270360;23;20038;-81
2022/11/19 02:05:04;;;;;;;14.80;12.13;;;;;;;;;;1270654;23;19996;-79
2022/11/19 02:05:35;;;;;;;16.33;12.27;;;;;;;;;;1264481;23;20005;-82
2022/11/19 02:06:07;;;;;;;17.63;12.32;;;;;;;;;;1265473;23;19994;-81
2022/11/19 02:06:38;;;;;;;13.48;10.85;;;;;;;;;;1264791;23;20103;-79
2022/11/19 02:07:11;;;;;;;13.43;10.73;;;;;;;;;;1259326;23;19999;-78
2022/11/19 02:07:44;;;;;;;12.02;10.00;;;;;;;;;;1264850;23;19998;-80
2022/11/19 02:08:34;;;;;;;13.25;10.13;;;;;;;;;;1266389;23;19993;-80
2022/11/19 02:09:05;;;;;;;16.35;13.10;;;;;;;;;;1276154;23;19993;-81
2022/11/19 02:09:37;;;;;;;10.85;9.40;;;;;;;;;;1277282;23;19989;-83
2022/11/19 02:10:08;;;;;;;15.23;12.65;;;;;;;;;;1270573;23;20071;-80
2022/11/19 02:10:46;;;;;;;14.13;11.15;;;;;;;;;;1264951;23;19998;-79
2022/11/19 02:11:20;;;;;;;15.10;13.05;;;;;;;;;;1264544;23;20244;-81
2022/11/19 02:11:53;;;;;;;16.10;12.98;;;;;;;;;;1267126;23;19998;-80
2022/11/19 02:12:24;;;;;;;16.17;12.10;;;;;;;;;;1264784;23;20113;-80
2022/11/19 02:13:07;;;;;;;14.98;13.30;;;;;;;;;;1264953;23;19997;-81
2022/11/19 02:13:46;;;;;;;17.73;15.07;;;;;;;;;;1268275;23;20017;-79
2022/11/19 02:14:36;;;;;;;17.13;13.80;;;;;;;;;;1270783;23;20353;-79
2022/11/19 02:15:17;;;;;;;15.95;13.60;;;;;;;;;;1270826;23;20005;-79
2022/11/19 02:15:53;;;;;;;15.25;11.70;;;;;;;;;;1270733;23;19997;-78
2022/11/19 02:16:27;;;;;;;16.00;12.57;;;;;;;;;;1269667;23;20326;-79
2022/11/19 02:17:16;;;;;;;14.95;11.63;;;;;;;;;;1270847;23;20005;-78
2022/11/19 02:17:50;;;;;;;14.52;11.85;;;;;;;;;;1264442;23;20009;-78
2022/11/19 02:18:21;;;;;;;14.95;11.95;;;;;;;;;;1265245;23;20002;-80
2022/11/19 02:18:58;;;;;;;12.90;10.82;;;;;;;;;;1270643;23;20001;-81
2022/11/19 02:19:41;;;;;;;12.05;9.55;;;;;;;;;;1270421;23;20001;-78
2022/11/19 02:20:32;;;;;;;15.73;12.00;;;;;;;;;;1270893;23;20067;-81
2022/11/19 02:21:12;;;;;;;12.95;10.70;;;;;;;;;;1264881;23;20505;-80
2022/11/19 02:21:48;;;;;;;15.40;11.75;;;;;;;;;;1270268;23;20071;-80
2022/11/19 02:22:38;;;;;;;15.52;13.88;;;;;;;;;;1270949;23;20002;-79
2022/11/19 02:23:29;;;;;;;17.52;14.10;;;;;;;;;;1270810;23;20646;-82
2022/11/19 02:24:00;;;;;;;16.02;11.80;;;;;;;;;;1266630;23;20009;-79
2022/11/19 02:24:34;;;;;;;15.18;12.55;;;;;;;;;;1270895;23;20011;-80
2022/11/19 02:25:12;;;;;;;17.92;13.20;;;;;;;;;;1270934;23;20092;-79
2022/11/19 02:25:43;;;;;;;16.13;13.55;;;;;;;;;;1270414;23;20001;-80
2022/11/19 02:26:26;;;;;;;16.95;13.15;;;;;;;;;;1268544;23;20001;-80
2022/11/19 02:27:07;;;;;;;17.27;13.77;;;;;;;;;;1264365;23;20356;-77
2022/11/19 02:27:59;;;;;;;13.93;11.98;;;;;;;;;;1269768;23;20001;-78
2022/11/19 02:28:38;;;;;;;13.77;11.15;;;;;;;;;;1270554;23;20046;-79
2022/11/19 02:29:18;;;;;;;15.00;12.48;;;;;;;;;;1270629;23;20009;-81
2022/11/19 02:29:56;;;;;;;14.82;12.40;;;;;;;;;;1264694;23;20005;-81
2022/11/19 02:30:30;;;;;;;15.73;11.52;;;;;;;;;;1269848;23;20010;-79
2022/11/19 02:31:22;;;;;;;17.90;13.50;;;;;;;;;;1270774;23;20043;-79
2022/11/19 02:32:00;;;;;;;15.98;11.88;;;;;;;;;;1270557;23;20040;-80
2022/11/19 02:32:56;;;;;;;15.55;13.77;;;;;;;;;;1270891;23;20006;-79
2022/11/19 02:34:00;;;;;;;15.90;11.13;;;;;;;;;;1270923;23;20048;-80
2022/11/19 02:34:33;;;;;;;15.38;11.70;;;;;;;;;;1245529;23;20498;-78
2022/11/19 02:35:07;;;;;;;15.65;12.15;;;;;;;;;;1246116;23;20003;-79
2022/11/19 02:35:51;;;;;;;15.02;10.88;;;;;;;;;;1260876;23;20003;-79
2022/11/19 02:36:36;;;;;;;17.58;15.77;;;;;;;;;;1270455;23;20208;-80
2022/11/19 02:37:07;;;;;;;17.05;12.45;;;;;;;;;;1270543;23;20064;-80
2022/11/19 02:37:53;;;;;;;16.73;12.48;;;;;;;;;;1270542;23;20115;-81
2022/11/19 02:38:31;;;;;;;15.40;12.35;;;;;;;;;;1270579;23;20422;-82
2022/11/19 02:39:29;;;;;;;17.17;12.77;;;;;;;;;;1269417;23;20014;-79
2022/11/19 02:40:01;;;;;;;16.95;14.43;;;;;;;;;;1266891;23;20012;-82
2022/11/19 02:40:36;;;;;;;15.65;12.30;;;;;;;;;;1263858;23;20256;-81
2022/11/19 02:41:33;;;;;;;15.27;11.85;;;;;;;;;;1270177;23;20016;-82
2022/11/19 02:42:04;;;;;;;18.20;14.20;;;;;;;;;;1270547;23;20406;-81
2022/11/19 02:42:43;;;;;;;15.35;12.40;;;;;;;;;;1270254;23;20445;-80
2022/11/19 02:43:20;;;;;;;20.05;16.90;;;;;;;;;;1270584;23;19997;-82
2022/11/19 02:44:57;;;;;;;15.75;13.55;;;;;;;;;;1269711;23;20009;-81
2022/11/19 02:44:58;;;;;;;21.95;15.07;;;;;;;;;;1270128;23;20033;-82
2022/11/19 02:45:34;;;;;;;20.90;15.35;;;;;;;;;;1270555;23;20001;-84
2022/11/19 02:46:09;;;;;;;20.15;16.50;;;;;;;;;;1270591;23;20005;-82
2022/11/19 02:46:40;;;;;;;16.98;13.23;;;;;;;;;;1270388;23;20005;-82
2022/11/19 02:47:13;;;;;;;20.10;16.10;;;;;;;;;;1270743;23;19998;-81
2022/11/19 02:47:45;;;;;;;18.15;15.93;;;;;;;;;;1268453;23;20084;-81
2022/11/19 02:48:24;;;;;;;19.02;15.05;;;;;;;;;;1270591;23;20037;-80
2022/11/19 02:48:55;;;;;;;18.25;13.05;;;;;;;;;;1270096;23;20009;-81
2022/11/19 02:49:28;;;;;;;16.98;14.80;;;;;;;;;;1270745;23;20044;-82
2022/11/19 02:50:02;;;;;;;18.42;15.18;;;;;;;;;;1267874;23;20669;-81
2022/11/19 02:50:42;;;;;;;16.98;13.88;;;;;;;;;;1264650;23;20006;-82
2022/11/19 02:51:14;;;;;;;20.55;16.58;;;;;;;;;;1268059;23;20001;-80
2022/11/19 02:51:45;;;;;;;19.13;16.45;;;;;;;;;;1270907;23;20039;-81
2022/11/19 02:52:17;;;;;;;19.88;15.35;;;;;;;;;;1270726;23;19998;-81
2022/11/19 02:52:48;;;;;;;17.17;14.32;;;;;;;;;;1270986;23;20080;-80
2022/11/19 02:53:20;;;;;;;17.08;13.98;;;;;;;;;;1270613;23;20155;-82
2022/11/19 02:53:51;;;;;;;19.00;14.65;;;;;;;;;;1270518;23;20009;-81
2022/11/19 02:54:23;;;;;;;14.35;11.68;;;;;;;;;;1270513;23;20006;-82
2022/11/19 02:54:54;;;;;;;13.65;11.60;;;;;;;;;;1270965;23;20401;-81
2022/11/19 02:55:27;;;;;;;16.52;12.57;;;;;;;;;;1270500;23;20524;-80
2022/11/19 02:56:10;;;;;;;17.35;14.63;;;;;;;;;;1270956;23;20092;-81
2022/11/19 02:56:51;;;;;;;17.02;13.00;;;;;;;;;;1274028;23;20033;-78
2022/11/19 02:57:22;;;;;;;18.45;15.77;;;;;;;;;;1277266;23;20339;-80
2022/11/19 03:04:28;;;;;;;19.27;15.70;;;;;;;;;;1277413;23;20496;-80
2022/11/19 03:04:33;;;;;;;17.10;13.15;;;;;;;;;;1277226;23;20463;-82
2022/11/19 03:05:06;;;;;;;20.75;15.98;;;;;;;;;;1277353;23;20025;-81
2022/11/19 03:05:39;;;;;;;20.05;15.85;;;;;;;;;;1277037;23;20049;-80
2022/11/19 03:06:17;;;;;;;19.02;13.90;;;;;;;;;;1270930;23;19994;-80
2022/11/19 03:06:48;;;;;;;;;;;;;;;;;;1264965;23;20108;-79
2022/11/19 03:07:20;;;;;;;20.92;16.52;;;;;;;;;;1264852;23;19904;-80
2022/11/19 03:07:51;;;;;;;18.23;13.50;;;;;;;;;;1266556;23;20345;-79
2022/11/19 03:08:23;;;;;;;17.98;14.25;;;;;;;;;;1264882;23;20730;-79
2022/11/19 03:08:54;;;;;;;18.95;14.93;;;;;;;;;;1265078;23;20105;-79
2022/11/19 03:09:25;;;;;;;18.65;13.40;;;;;;;;;;1270465;23;20056;-81
2022/11/19 03:09:58;;;;;;;17.08;14.00;;;;;;;;;;1270584;23;20532;-80
2022/11/19 03:10:32;;;;;;;19.70;16.23;;;;;;;;;;1270742;23;20001;-81
2022/11/19 03:11:19;;;;;;;18.33;15.68;;;;;;;;;;1268897;23;20356;-80
2022/11/19 03:11:52;;;;;;;17.30;13.93;;;;;;;;;;1264809;23;20006;-80
2022/11/19 03:12:43;;;;;;;18.08;14.38;;;;;;;;;;1264630;23;20101;-81
2022/11/19 03:17:23;;;;;;;18.95;14.90;;;;;;;;;;1277342;23;20659;-79
2022/11/19 03:18:11;;;;;;;19.20;15.32;;;;;;;;;;1246439;23;20090;-79
2022/11/19 03:18:45;;;;;;;19.52;15.96;;;;;;;;;;1255987;23;20039;-80
2022/11/19 03:19:27;;;;;;;20.13;16.58;;;;;;;;;;1264774;23;19998;-80
2022/11/19 03:20:03;;;;;;;18.67;12.80;;;;;;;;;;1270843;23;20010;-81
2022/11/19 03:20:41;;;;;;;17.52;13.65;;;;;;;;;;1270709;23;20052;-81
2022/11/19 03:21:20;;;;;;;22.98;18.08;;;;;;;;;;1270733;23;20517;-80
2022/11/19 03:21:54;;;;;;;20.98;13.63;;;;;;;;;;1270653;23;20023;-79
2022/11/19 03:22:28;;;;;;;20.98;16.67;;;;;;;;;;1270722;23;20311;-80
2022/11/19 03:23:11;;;;;;;20.55;16.48;;;;;;;;;;1270698;23;20258;-78
2022/11/19 03:23:49;;;;;;;18.63;14.82;;;;;;;;;;1270018;23;20002;-81
2022/11/19 03:24:42;;;;;;;18.38;14.85;;;;;;;;;;1271067;23;20002;-81
2022/11/19 03:25:34;;;;;;;17.35;12.75;;;;;;;;;;1259073;23;20100;-81
2022/11/19 03:26:17;;;;;;;18.17;14.30;;;;;;;;;;1264409;23;20006;-82
2022/11/19 03:26:51;;;;;;;20.23;16.65;;;;;;;;;;1264887;23;20002;-81
2022/11/19 03:27:24;;;;;;;19.55;17.45;;;;;;;;;;1270945;23;20092;-82
2022/11/19 03:27:59;;;;;;;23.33;18.10;;;;;;;;;;1270425;23;20002;-81
2022/11/19 03:28:33;;;;;;;21.67;16.40;;;;;;;;;;1271006;23;20326;-80
2022/11/19 03:29:07;;;;;;;20.58;16.92;;;;;;;;;;1270462;23;20654;-81
2022/11/19 03:29:41;;;;;;;19.92;16.38;;;;;;;;;;1267066;23;20014;-80
2022/11/19 03:30:13;;;;;;;16.73;13.50;;;;;;;;;;1270540;23;20004;-80
2022/11/19 03:30:45;;;;;;;19.75;16.35;;;;;;;;;;1270547;23;20145;-79
2022/11/19 03:31:18;;;;;;;19.13;16.77;;;;;;;;;;1270461;23;20012;-82
2022/11/19 03:31:50;;;;;;;17.75;14.35;;;;;;;;;;1270403;23;20076;-78
2022/11/19 03:32:24;;;;;;;18.63;15.40;;;;;;;;;;1269304;23;20002;-81
2022/11/19 03:33:07;;;;;;;19.98;16.63;;;;;;;;;;1258296;23;20002;-79
2022/11/19 03:33:42;;;;;;;20.98;18.05;;;;;;;;;;1256196;23;20014;-79
2022/11/19 03:34:18;;;;;;;21.30;18.65;;;;;;;;;;1256303;23;20056;-78